West Stafford, Connecticut
Current Conditions -  °F | °C
As of 9:52 AM on Thursday 23 Oct 2014 (Local Time) from KIJD Reporting Station
Overcast Overcast  
Wind Chill: 12°   Ceiling: 2300
Heat Index: 12°   Visibility: 10mi
Dew Point:   Wind: 14mph
Humidity: 77%   Direction: 10°N
Pressure: 29.63"   Gusts: 22mph
Location:  41.9885°N, 72.2592°W
Report Text: KIJD 231352Z AUTO 01012G19KT 10SM BKN023 OVC075 12/08 A2963 RMK AO2 RAE12 SLP034 P0000 T01170078
Loading
Personal Weather Stations






























Interactive Weather Map
Tropical Storm Tracking
New forecast layout! Learn more

10-Day Weather Forecast

Advertisements
Track Severe Weather on mobile